createdAt,value
2022-08-12T00:02:02.076Z,62.22
2022-08-12T00:04:33.716Z,60.51
2022-08-12T00:07:22.058Z,60.25
2022-08-12T00:10:10.662Z,61.06
2022-08-12T00:12:58.858Z,62.04
2022-08-12T00:15:47.713Z,62.03
2022-08-12T00:18:38.958Z,61.80
2022-08-12T00:21:27.576Z,61.16
2022-08-12T00:24:16.230Z,60.61
2022-08-12T00:27:06.638Z,60.68
2022-08-12T00:29:55.599Z,60.70
2022-08-12T00:32:54.749Z,61.03
2022-08-12T00:35:45.388Z,60.22
2022-08-12T00:38:33.969Z,59.93
2022-08-12T00:41:22.384Z,58.93
2022-08-12T00:43:56.167Z,60.34
2022-08-12T00:46:32.625Z,65.17
2022-08-12T00:49:04.401Z,64.05
2022-08-12T00:51:53.986Z,62.77
2022-08-12T00:54:26.666Z,62.62
2022-08-12T00:57:04.339Z,62.11
2022-08-12T00:59:36.117Z,61.94
2022-08-12T01:02:12.086Z,62.02
2022-08-12T01:05:03.083Z,61.23
2022-08-12T01:07:51.991Z,62.24
2022-08-12T01:10:40.695Z,62.59
2022-08-12T01:13:19.986Z,62.52
2022-08-12T01:15:52.300Z,62.20
2022-08-12T01:18:23.852Z,61.49
2022-08-12T01:21:02.163Z,61.00
2022-08-12T01:23:48.770Z,60.45
2022-08-12T01:26:20.016Z,59.69
2022-08-12T01:28:53.924Z,58.49
2022-08-12T01:31:26.960Z,59.91
2022-08-12T01:34:03.695Z,64.02
2022-08-12T01:36:37.762Z,64.38
2022-08-12T01:39:09.050Z,62.50
2022-08-12T01:41:41.319Z,61.35
2022-08-12T01:44:12.809Z,60.60
2022-08-12T01:46:52.716Z,60.26
2022-08-12T01:49:49.553Z,59.79
2022-08-12T01:52:28.733Z,58.74
2022-08-12T01:55:01.233Z,59.58
2022-08-12T01:57:59.438Z,64.37
2022-08-12T02:00:55.367Z,64.69
2022-08-12T02:03:55.996Z,62.90
2022-08-12T02:06:48.848Z,61.52
2022-08-12T02:09:40.310Z,60.71
2022-08-12T02:12:27.596Z,59.93
2022-08-12T02:15:04.795Z,60.07
2022-08-12T02:17:55.351Z,60.11
2022-08-12T02:20:43.903Z,58.75
2022-08-12T02:23:27.182Z,61.03
2022-08-12T02:26:04.643Z,64.48
2022-08-12T02:28:35.373Z,63.85
2022-08-12T02:31:07.191Z,62.02
2022-08-12T02:33:38.613Z,61.66
2022-08-12T02:36:09.616Z,62.23
2022-08-12T02:38:43.033Z,61.98
2022-08-12T02:41:14.669Z,61.97
2022-08-12T02:43:49.637Z,60.89
2022-08-12T02:46:23.096Z,60.60
2022-08-12T02:48:54.390Z,61.15
2022-08-12T02:51:27.429Z,61.12
2022-08-12T02:54:04.408Z,60.87
2022-08-12T02:56:41.177Z,60.59
2022-08-12T02:59:13.035Z,60.63
2022-08-12T03:01:48.143Z,60.96
2022-08-12T03:04:26.947Z,61.46
2022-08-12T03:07:05.723Z,61.46
2022-08-12T03:10:04.583Z,60.87
2022-08-12T03:12:41.201Z,61.68
2022-08-12T03:15:22.356Z,59.97
2022-08-12T03:18:26.017Z,59.90
2022-08-12T03:20:46.220Z,64.12
2022-08-12T03:23:29.068Z,63.84
2022-08-12T03:26:02.814Z,62.24
2022-08-12T03:28:54.527Z,62.40
2022-08-12T03:31:26.303Z,62.36
2022-08-12T03:34:02.107Z,61.95
2022-08-12T03:36:35.504Z,61.63
2022-08-12T03:39:22.966Z,61.92
2022-08-12T03:42:11.581Z,61.89
2022-08-12T03:45:01.398Z,61.89
2022-08-12T03:47:51.533Z,62.42
2022-08-12T03:50:40.612Z,62.61
2022-08-12T03:53:29.578Z,63.13
2022-08-12T03:56:18.104Z,62.68
2022-08-12T03:59:05.781Z,62.37
2022-08-12T04:01:40.779Z,61.40
2022-08-12T04:04:11.841Z,60.12
2022-08-12T04:06:46.186Z,60.09
2022-08-12T04:09:17.538Z,60.32
2022-08-12T04:12:05.954Z,60.67
2022-08-12T04:14:36.618Z,60.72
2022-08-12T04:17:08.788Z,59.95
2022-08-12T04:19:39.688Z,60.43
2022-08-12T04:22:12.778Z,61.28
2022-08-12T04:24:50.367Z,61.42
2022-08-12T04:27:21.817Z,60.89
2022-08-12T04:30:30.946Z,60.85
2022-08-12T04:32:44.896Z,61.44
2022-08-12T04:35:15.517Z,61.84
2022-08-12T04:37:59.195Z,61.59
2022-08-12T04:40:31.613Z,60.67
2022-08-12T04:43:02.788Z,59.68
2022-08-12T04:45:35.033Z,59.74
2022-08-12T04:48:06.789Z,63.42
2022-08-12T04:50:40.844Z,65.01
2022-08-12T04:53:13.209Z,63.74
2022-08-12T04:55:45.950Z,62.23
2022-08-12T04:58:16.559Z,60.96
2022-08-12T05:01:01.354Z,60.85
2022-08-12T05:03:46.120Z,61.11
2022-08-12T05:06:26.449Z,61.60
2022-08-12T05:09:00.847Z,61.25
2022-08-12T05:11:31.316Z,60.89
2022-08-12T05:14:02.598Z,60.26
2022-08-12T05:16:34.250Z,58.99
2022-08-12T05:19:18.458Z,58.95
2022-08-12T05:21:51.906Z,63.35
2022-08-12T05:24:22.582Z,65.41
2022-08-12T05:26:53.525Z,63.73
2022-08-12T05:30:07.559Z,62.78
2022-08-12T05:32:20.755Z,60.92
2022-08-12T05:34:51.981Z,60.56
2022-08-12T05:37:22.878Z,60.53
2022-08-12T05:39:53.739Z,60.44
2022-08-12T05:42:30.998Z,59.98
2022-08-12T05:45:06.177Z,59.00
2022-08-12T05:47:53.800Z,60.42
2022-08-12T05:50:26.675Z,64.70
2022-08-12T05:52:57.140Z,64.06
2022-08-12T05:55:31.207Z,62.24
2022-08-12T05:58:03.160Z,61.01
2022-08-12T06:00:33.982Z,59.80
2022-08-12T06:03:04.990Z,58.43
2022-08-12T06:05:54.236Z,61.85
2022-08-12T06:08:25.904Z,63.75
2022-08-12T06:10:57.415Z,62.30
2022-08-12T06:13:53.846Z,60.57
2022-08-12T06:16:20.542Z,59.88
2022-08-12T06:18:50.895Z,59.24
2022-08-12T06:21:23.780Z,61.35
2022-08-12T06:23:54.596Z,62.83
2022-08-12T06:26:25.759Z,62.25
2022-08-12T06:28:57.001Z,61.09
2022-08-12T06:31:28.083Z,58.73
2022-08-12T06:35:23.977Z,59.99
2022-08-12T06:36:49.583Z,62.49
2022-08-12T06:39:20.574Z,63.68
2022-08-12T06:42:32.165Z,62.51
2022-08-12T06:45:00.696Z,60.18
2022-08-12T06:47:33.103Z,58.91
2022-08-12T06:50:04.211Z,60.22
2022-08-12T06:52:35.280Z,62.91
2022-08-12T06:55:07.569Z,62.32
2022-08-12T06:58:05.576Z,60.51
2022-08-12T07:00:39.155Z,59.87
2022-08-12T07:03:22.604Z,58.87
2022-08-12T07:05:54.654Z,60.89
2022-08-12T07:08:27.769Z,63.46
2022-08-12T07:10:59.377Z,62.10
2022-08-12T07:13:36.064Z,60.61
2022-08-12T07:16:27.074Z,58.48
2022-08-12T07:18:58.992Z,61.10
2022-08-12T07:21:59.019Z,63.36
2022-08-12T07:24:23.170Z,63.01
2022-08-12T07:26:55.042Z,61.23
2022-08-12T07:29:59.492Z,58.99
2022-08-12T07:32:16.571Z,58.86
2022-08-12T07:34:47.759Z,61.92
2022-08-12T07:37:18.423Z,63.77
2022-08-12T07:39:51.113Z,61.95
2022-08-12T07:42:31.338Z,60.23
2022-08-12T07:45:02.648Z,58.46
2022-08-12T07:47:33.969Z,59.55
2022-08-12T07:50:09.516Z,60.95
2022-08-12T07:52:42.386Z,63.48
2022-08-12T07:55:15.072Z,61.53
2022-08-12T07:57:54.343Z,59.27
2022-08-12T08:00:26.814Z,58.04
2022-08-12T08:02:57.211Z,60.02
2022-08-12T08:05:29.249Z,62.33
2022-08-12T08:08:02.572Z,61.85
2022-08-12T08:10:34.491Z,59.67
2022-08-12T08:13:06.082Z,58.68
2022-08-12T08:16:02.933Z,60.51
2022-08-12T08:18:27.805Z,62.79
2022-08-12T08:20:58.492Z,60.43
2022-08-12T08:23:56.284Z,57.98
2022-08-12T08:26:28.993Z,59.73
2022-08-12T08:29:09.011Z,61.36
2022-08-12T08:31:44.990Z,62.83
2022-08-12T08:34:27.649Z,59.49
2022-08-12T08:37:07.760Z,56.44
2022-08-12T08:39:40.904Z,58.91
2022-08-12T08:42:29.509Z,59.91
2022-08-12T08:45:13.212Z,60.47
2022-08-12T08:47:47.209Z,61.70
2022-08-12T08:50:17.702Z,61.32
2022-08-12T08:52:49.809Z,61.87
2022-08-12T08:55:27.408Z,62.53
2022-08-12T08:58:04.735Z,59.70
2022-08-12T09:00:35.567Z,57.12
2022-08-12T09:04:21.287Z,58.69
2022-08-12T09:06:02.083Z,60.43
2022-08-12T09:08:33.802Z,60.83
2022-08-12T09:12:07.302Z,61.67
2022-08-12T09:14:18.752Z,62.01
2022-08-12T09:16:50.969Z,59.14
2022-08-12T09:19:26.918Z,57.47
2022-08-12T09:24:50.367Z,60.09
2022-08-12T09:27:24.529Z,60.10
2022-08-12T09:30:16.207Z,61.38
2022-08-12T09:33:05.055Z,62.01
2022-08-12T09:35:44.297Z,62.22
2022-08-12T09:38:27.695Z,59.56
2022-08-12T09:42:09.512Z,57.20
2022-08-12T09:44:38.585Z,58.86
2022-08-12T09:47:00.348Z,60.29
2022-08-12T09:49:42.066Z,61.63
2022-08-12T09:52:15.571Z,61.64
2022-08-12T09:54:44.423Z,61.87
2022-08-12T09:58:45.115Z,62.68
2022-08-12T10:00:17.667Z,61.14
2022-08-12T10:03:01.495Z,56.76
2022-08-12T10:06:19.810Z,56.23
2022-08-12T10:08:27.592Z,58.05
2022-08-12T10:11:19.958Z,58.86
2022-08-12T10:13:52.994Z,58.98
2022-08-12T10:16:24.777Z,59.57
2022-08-12T10:19:00.066Z,58.65
2022-08-12T10:21:36.358Z,59.52
2022-08-12T10:24:09.552Z,59.35
2022-08-12T10:26:58.387Z,59.21
2022-08-12T10:30:37.780Z,60.37
2022-08-12T10:32:44.546Z,60.51
2022-08-12T10:35:20.983Z,60.25
2022-08-12T10:38:33.281Z,59.83
2022-08-12T10:40:56.372Z,59.95
2022-08-12T10:43:55.658Z,60.46
2022-08-12T10:46:31.234Z,60.13
2022-08-12T10:49:06.262Z,60.43
2022-08-12T10:52:32.373Z,60.41
2022-08-12T10:54:49.230Z,60.16
2022-08-12T10:58:14.998Z,59.85
2022-08-12T11:00:31.854Z,58.94
2022-08-12T11:04:25.546Z,57.63
2022-08-12T11:07:08.742Z,57.64
2022-08-12T11:08:51.006Z,57.94
2022-08-12T11:12:07.544Z,58.00
2022-08-12T11:14:49.411Z,57.88
2022-08-12T11:17:33.552Z,56.88
2022-08-12T11:19:55.017Z,56.14
2022-08-12T11:22:25.847Z,56.42
2022-08-12T11:25:00.984Z,57.15
2022-08-12T11:27:40.917Z,57.13
2022-08-12T11:30:31.396Z,56.66
2022-08-12T11:33:11.947Z,54.97
2022-08-12T11:35:59.556Z,55.31
2022-08-12T11:38:30.094Z,54.93
2022-08-12T11:41:00.736Z,55.98
2022-08-12T11:43:32.516Z,55.37
2022-08-12T11:46:21.787Z,55.54
2022-08-12T11:48:52.910Z,55.76
2022-08-12T11:51:23.863Z,55.79
2022-08-12T11:53:58.197Z,55.50
2022-08-12T11:56:38.212Z,55.08
2022-08-12T12:02:05.592Z,55.58
2022-08-12T12:04:36.486Z,56.08
2022-08-12T12:07:11.382Z,55.88
2022-08-12T12:09:53.342Z,55.79
2022-08-12T12:12:25.414Z,55.48
2022-08-12T12:15:01.613Z,55.10
2022-08-12T12:17:38.630Z,55.30
2022-08-12T12:20:11.434Z,55.34
2022-08-12T12:22:45.151Z,55.45
2022-08-12T12:25:15.879Z,55.62
2022-08-12T12:28:04.696Z,54.81
2022-08-12T12:30:37.324Z,52.90
2022-08-12T12:33:08.627Z,50.60
2022-08-12T12:36:18.856Z,49.81
2022-08-12T12:38:31.501Z,47.46
2022-08-12T12:41:16.191Z,46.32
2022-08-12T12:43:56.445Z,46.58
2022-08-12T12:46:35.414Z,46.55
2022-08-12T12:49:10.914Z,45.80
2022-08-12T12:51:56.441Z,46.45
2022-08-12T12:54:32.537Z,46.03
2022-08-12T12:57:04.286Z,45.16
2022-08-12T13:00:00.897Z,44.08
2022-08-12T13:02:32.110Z,43.52
2022-08-12T13:05:02.921Z,41.38
2022-08-12T13:07:54.090Z,41.03
2022-08-12T13:10:30.538Z,40.94
2022-08-12T13:14:09.693Z,41.11
2022-08-12T13:15:54.146Z,40.86
2022-08-12T13:18:36.570Z,40.99
2022-08-12T13:21:15.675Z,40.41
2022-08-12T13:24:00.403Z,39.51
2022-08-12T13:26:35.202Z,39.95
2022-08-12T13:29:11.585Z,39.44
2022-08-12T13:31:46.484Z,38.88
2022-08-12T13:34:35.704Z,39.24
2022-08-12T13:37:09.752Z,40.32
2022-08-12T13:39:40.758Z,40.50
2022-08-12T13:42:13.720Z,40.86
2022-08-12T13:44:46.211Z,40.85
2022-08-12T13:47:19.754Z,40.28
2022-08-12T13:49:53.794Z,39.99
2022-08-12T13:52:26.628Z,38.74
2022-08-12T13:54:57.462Z,37.93
2022-08-12T13:57:44.688Z,37.26
2022-08-12T14:00:18.430Z,37.80
2022-08-12T14:02:53.262Z,37.37
2022-08-12T14:05:37.545Z,36.80
2022-08-12T14:08:11.040Z,36.77
2022-08-12T14:10:50.460Z,36.31
2022-08-12T14:14:06.168Z,35.36
2022-08-12T14:16:14.453Z,34.48
2022-08-12T14:18:49.077Z,34.20
2022-08-12T14:21:22.495Z,34.35
2022-08-12T14:24:07.919Z,33.64
2022-08-12T14:26:39.546Z,33.56
2022-08-12T14:29:21.586Z,33.41
2022-08-12T14:31:53.574Z,33.24
2022-08-12T14:34:28.436Z,34.01
2022-08-12T14:37:02.764Z,33.89
2022-08-12T14:39:39.171Z,34.22
2022-08-12T14:42:09.852Z,34.13
2022-08-12T14:44:57.798Z,33.94
2022-08-12T14:47:35.530Z,34.10
2022-08-12T14:50:40.856Z,34.45
2022-08-12T14:59:20.654Z,33.75
2022-08-12T15:01:54.474Z,34.05
2022-08-12T15:04:29.132Z,33.97
2022-08-12T15:07:00.350Z,33.41
2022-08-12T15:09:31.846Z,32.99
2022-08-12T15:12:03.755Z,32.99
2022-08-12T15:14:37.891Z,33.88
2022-08-12T15:17:08.966Z,34.59
2022-08-12T15:20:30.752Z,35.29
2022-08-12T15:22:38.179Z,36.36
2022-08-12T15:25:17.503Z,36.88
2022-08-12T15:28:05.766Z,37.19
2022-08-12T15:30:37.918Z,38.01
2022-08-12T15:33:12.922Z,38.96
2022-08-12T15:35:50.465Z,39.79
2022-08-12T15:38:27.717Z,40.82
2022-08-12T15:41:00.257Z,41.50
2022-08-12T15:43:52.078Z,42.74
2022-08-12T15:46:25.798Z,43.61
2022-08-12T15:48:57.539Z,44.38
2022-08-12T15:51:57.343Z,45.25
2022-08-12T15:54:33.854Z,46.27
2022-08-12T15:57:07.708Z,46.89
2022-08-12T16:00:03.669Z,47.62
2022-08-12T16:02:30.099Z,47.88
2022-08-12T16:05:01.288Z,48.20
2022-08-12T16:07:40.977Z,48.60
2022-08-12T16:10:11.834Z,48.91
2022-08-12T16:12:54.509Z,49.19
2022-08-12T16:15:29.606Z,49.45
2022-08-12T16:18:19.071Z,49.83
2022-08-12T16:20:52.369Z,49.95
2022-08-12T16:23:35.825Z,50.34
2022-08-12T16:26:19.958Z,50.69
2022-08-12T16:28:52.527Z,50.85
2022-08-12T16:31:24.017Z,51.16
2022-08-12T16:33:59.027Z,51.49
2022-08-12T16:36:31.895Z,51.68
2022-08-12T16:39:03.941Z,51.92
2022-08-12T16:41:39.805Z,52.25
2022-08-12T16:44:10.853Z,52.66
2022-08-12T16:46:42.404Z,52.97
2022-08-12T16:49:29.933Z,53.25
2022-08-12T16:52:14.738Z,53.48
2022-08-12T16:54:48.189Z,54.08
2022-08-12T16:57:20.054Z,54.27
2022-08-12T17:00:07.615Z,54.36
2022-08-12T17:02:37.857Z,54.53
2022-08-12T17:05:12.850Z,54.65
2022-08-12T17:07:47.160Z,54.87
2022-08-12T17:10:36.095Z,54.96
2022-08-12T17:13:10.249Z,55.18
2022-08-12T17:15:57.453Z,55.85
2022-08-12T17:18:43.096Z,56.36
2022-08-12T17:21:40.207Z,56.64
2022-08-12T17:24:15.362Z,56.57
2022-08-12T17:26:49.281Z,56.78
2022-08-12T17:29:32.173Z,57.02
2022-08-12T17:32:14.692Z,57.21
2022-08-12T17:35:03.310Z,57.35
2022-08-12T17:37:34.143Z,57.71
2022-08-12T17:40:13.766Z,57.77
2022-08-12T17:42:49.014Z,58.16
2022-08-12T17:45:20.164Z,58.32
2022-08-12T17:48:05.396Z,58.60
2022-08-12T17:50:38.252Z,58.77
2022-08-12T17:53:10.128Z,59.10
2022-08-12T17:55:48.260Z,59.28
2022-08-12T17:58:35.600Z,59.80
2022-08-12T18:01:11.425Z,60.15
2022-08-12T18:04:05.479Z,60.36
2022-08-12T18:06:34.968Z,60.65
2022-08-12T18:09:09.378Z,61.08
2022-08-12T18:12:06.541Z,61.21
2022-08-12T18:14:41.342Z,61.43
2022-08-12T18:17:14.061Z,61.50
2022-08-12T18:20:06.280Z,61.74
2022-08-12T18:22:36.496Z,62.03
2022-08-12T18:26:12.545Z,61.81
2022-08-12T18:28:15.862Z,62.71
2022-08-12T18:30:53.293Z,57.87
2022-08-12T18:33:26.921Z,57.04
2022-08-12T18:35:58.419Z,58.20
2022-08-12T18:38:29.421Z,59.57
2022-08-12T18:41:21.477Z,60.07
2022-08-12T18:43:59.736Z,60.51
2022-08-12T18:46:56.913Z,61.32
2022-08-12T18:49:33.391Z,62.12
2022-08-12T18:52:11.930Z,63.97
2022-08-12T18:54:49.002Z,61.73
2022-08-12T18:58:07.076Z,59.27
2022-08-12T19:00:21.478Z,57.64
2022-08-12T19:02:53.935Z,58.70
2022-08-12T19:05:54.237Z,60.05
2022-08-12T19:08:15.705Z,60.88
2022-08-12T19:10:50.239Z,61.91
2022-08-12T19:13:39.571Z,63.97
2022-08-12T19:16:12.705Z,61.82
2022-08-12T19:18:45.025Z,58.79
2022-08-12T19:21:17.033Z,58.13
2022-08-12T19:24:12.859Z,60.05
2022-08-12T19:26:43.818Z,61.03
2022-08-12T19:29:17.381Z,62.49
2022-08-12T19:31:57.337Z,60.95
2022-08-12T19:37:27.147Z,58.28
2022-08-12T19:40:09.397Z,59.85
2022-08-12T19:43:00.738Z,60.17
2022-08-12T19:45:41.804Z,63.17
2022-08-12T19:48:16.915Z,62.40
2022-08-12T19:50:50.202Z,60.96
2022-08-12T19:53:24.035Z,56.99
2022-08-12T19:55:55.845Z,57.78
2022-08-12T19:58:26.802Z,60.25
2022-08-12T20:00:57.748Z,61.89
2022-08-12T20:03:40.622Z,62.99
2022-08-12T20:06:15.709Z,60.66
2022-08-12T20:08:56.546Z,59.03
2022-08-12T20:12:15.042Z,59.92
2022-08-12T20:14:21.007Z,62.47
2022-08-12T20:16:57.355Z,61.93
2022-08-12T20:20:00.975Z,60.53
2022-08-12T20:22:31.374Z,58.85
2022-08-12T20:25:10.759Z,60.20
2022-08-12T20:28:04.277Z,62.55
2022-08-12T20:30:52.322Z,62.08
2022-08-12T20:33:50.187Z,59.49
2022-08-12T20:36:40.622Z,59.08
2022-08-12T20:39:33.912Z,61.54
2022-08-12T20:42:02.476Z,63.33
2022-08-12T20:44:37.754Z,61.43
2022-08-12T20:47:20.247Z,60.26
2022-08-12T20:49:55.981Z,58.49
2022-08-12T20:52:35.200Z,60.77
2022-08-12T20:55:15.599Z,62.86
2022-08-12T20:58:02.705Z,62.14
2022-08-12T21:00:35.996Z,60.02
2022-08-12T21:03:20.431Z,58.94
2022-08-12T21:06:12.300Z,60.63
2022-08-12T21:08:44.559Z,64.20
2022-08-12T21:11:15.664Z,62.39
2022-08-12T21:13:46.712Z,59.72
2022-08-12T21:16:31.461Z,59.31
2022-08-12T21:19:07.907Z,61.00
2022-08-12T21:21:40.421Z,64.22
2022-08-12T21:24:20.867Z,62.65
2022-08-12T21:27:03.468Z,60.22
2022-08-12T21:29:39.906Z,60.82
2022-08-12T21:32:36.797Z,61.65
2022-08-12T21:35:19.012Z,65.20
2022-08-12T21:37:53.401Z,64.35
2022-08-12T21:40:36.833Z,62.13
2022-08-12T21:43:09.902Z,60.80
2022-08-12T21:45:47.004Z,61.02
2022-08-12T21:48:29.017Z,60.71
2022-08-12T21:50:59.950Z,59.26
2022-08-12T21:53:31.753Z,61.00
2022-08-12T21:56:34.271Z,63.49
2022-08-12T21:59:13.615Z,63.41
2022-08-12T22:01:49.064Z,62.05
2022-08-12T22:04:38.128Z,60.87
2022-08-12T22:07:08.810Z,60.85
2022-08-12T22:09:43.328Z,60.11
2022-08-12T22:12:31.942Z,59.50
2022-08-12T22:15:04.124Z,61.06
2022-08-12T22:17:50.266Z,64.58
2022-08-12T22:20:22.227Z,63.58
2022-08-12T22:22:56.433Z,62.34
2022-08-12T22:25:28.025Z,61.76
2022-08-12T22:28:16.483Z,60.97
2022-08-12T22:31:04.684Z,61.21
2022-08-12T22:33:54.310Z,60.67
2022-08-12T22:36:29.298Z,60.47
2022-08-12T22:39:00.365Z,60.33
2022-08-12T22:41:56.708Z,59.87
2022-08-12T22:44:54.436Z,59.60
2022-08-12T22:47:49.751Z,62.26
2022-08-12T22:50:29.725Z,65.26
2022-08-12T22:53:15.727Z,63.79
2022-08-12T22:56:05.804Z,63.41
2022-08-12T22:58:40.800Z,62.99
2022-08-12T23:01:21.355Z,62.53
2022-08-12T23:04:03.237Z,61.72
2022-08-12T23:06:33.923Z,61.51
2022-08-12T23:09:06.035Z,61.06
2022-08-12T23:11:40.710Z,61.16
2022-08-12T23:14:12.407Z,61.41
2022-08-12T23:16:43.521Z,61.22
2022-08-12T23:19:18.273Z,61.20
2022-08-12T23:22:03.919Z,60.64
2022-08-12T23:24:55.642Z,61.02
2022-08-12T23:27:51.787Z,60.49
2022-08-12T23:30:31.981Z,60.85
2022-08-12T23:33:20.026Z,61.44
2022-08-12T23:36:02.521Z,61.33
2022-08-12T23:38:35.059Z,61.25
2022-08-12T23:41:12.956Z,61.08
2022-08-12T23:43:50.004Z,61.41
2022-08-12T23:46:22.725Z,61.18
2022-08-12T23:48:58.578Z,60.34
2022-08-12T23:51:32.385Z,61.01
2022-08-12T23:54:07.415Z,60.83
2022-08-12T23:56:39.090Z,61.25
2022-08-12T23:59:16.625Z,61.12
